Station: ADELAIDE AIRPORT

  Atmospheric Gas Attenuation - ITU Rec 676-11   --------------- db/100km ---------------
Date Time Temp RH % AH g/m3 Dew Point Wind Direction Speed kph Gust kph Barometer mB Rainfall Since 9am 24GHz 47GHz 76GHz 122GHz 134GHz 241GHz
27 13:00 15 55 7.05 6 17 19 1025.7 0 16.2 23.6 33.8 88.2 78.2 267.6
27 12:50 14.3 56 6.88 5.8 15 17 1025.8 0 15.9 23.5 33.4 87.2 76.7 262.5
27 12:40 14.2 56 6.84 5.5 15 17 1026 0 15.8 23.5 33.3 87.0 76.4 261.2
27 12:30 14.4 56 6.92 5.7 15 19 1026.1 0 16.0 23.6 33.5 87.5 77.2 264.0
27 12:20 14.4 56 6.92 5.7 15 17 1026.2 0 16.0 23.6 33.5 87.6 77.2 264.0
27 12:10 14.1 57 6.92 5.8 15 17 1026.4 0 16.0 23.7 33.7 87.9 77.5 265.1
27 12:00 13.8 57 6.79 5.4 15 15 1026.5 0 15.7 23.5 33.3 86.9 76.2 260.4
27 11:50 14 56 6.75 5.4 15 17 1026.7 0 15.6 23.4 33.1 86.3 75.5 258.1
27 11:40 13.9 56 6.71 5.3 15 19 1026.8 0 15.6 23.4 33.0 86.0 75.1 256.7
27 11:30 14.2 54 6.59 5.2 11 15 1026.9 0 15.3 23.1 32.4 84.5 73.3 250.5
27 11:20 13.9 54 6.47 4.8 15 17 1027 0 15.0 23.0 32.1 83.7 72.1 246.3
27 11:10 13.5 54 6.32 4.5 15 17 1027.1 0 14.7 22.9 31.7 82.6 70.7 241.1
27 11:00 13.5 57 6.67 5.1 13 17 1027.2 0 15.5 23.5 33.0 86.1 75.0 256.3
27 10:50 13.2 57 6.55 4.9 13 15 1027.3 0 15.2 23.4 32.7 85.2 73.8 252.0
27 10:40 13 58 6.58 4.9 13 13 1027.4 0 15.3 23.5 32.9 85.8 74.4 254.0
27 10:30 13.1 60 6.85 5.6 13 15 1027.5 0 15.9 23.8 33.9 88.4 77.7 265.6
27 10:20 13.5 61 7.14 6.1 9 13 1027.5 0 16.5 24.2 34.8 90.9 80.9 277.1
27 10:10 13.5 57 6.67 5.3 6 7 1027.6 0 15.5 23.5 33.0 86.1 75.0 256.4
27 10:00 13.7 55 6.51 4.8 13 15 1027.7 0 15.1 23.2 32.3 84.3 72.9 248.8
27 09:50 13.1 58 6.62 5.1 7 9 1027.8 0 15.4 23.5 33.0 86.1 74.8 255.5
27 09:40 13.4 54 6.28 4.4 2 7 1027.9 0 14.7 22.9 31.6 82.4 70.3 239.8
27 09:30 13.2 53 6.09 3.8 6 7 1027.9 0 14.3 22.7 31.0 80.7 68.2 232.2
27 09:20 13.8 54 6.43 4.6 9 11 1027.8 0 15.0 23.0 32.0 83.4 71.8 245.1
27 09:10 13.6 53 6.24 4.4 9 9 1027.9 0 14.6 22.8 31.4 81.8 69.6 237.5
27 09:00 12.8 58 6.5 4.9 9 11 1027.9 0 15.2 23.4 32.7 85.2 73.6 251.2
27 08:50 12.9 59 6.65 5.1 11 11 1027.9 0 15.5 23.6 33.2 86.6 75.4 257.5
27 08:40 12.2 62 6.69 5.2 7 9 1027.9 0 15.6 23.8 33.7 87.8 76.5 261.5
27 08:30 11.7 63 6.59 4.9 7 11 1027.9 0 15.4 23.8 33.5 87.3 75.8 258.7
27 08:20 11.6 62 6.45 4.7 11 11 1027.9 0 15.1 23.6 33.0 86.0 74.1 252.8
27 08:10 11.1 63 6.35 4.4 11 13 1027.9 0 14.9 23.6 32.8 85.5 73.3 249.9
27 08:00 10.9 64 6.37 4.4 13 13 1027.8 0 15.0 23.7 32.9 85.9 73.7 251.4
27 07:50 10.7 67 6.58 4.9 11 11 1027.8 0 15.4 24.1 33.8 88.3 76.6 261.5
27 07:40 10.2 69 6.57 4.8 9 11 1027.7 0 15.4 24.2 34.0 88.7 76.9 262.7
27 07:30 9.9 72 6.72 5.2 11 11 1027.6 0 15.7 24.5 34.7 90.7 79.2 270.5
27 07:20 9.5 78 7.1 5.8 7 9 1027.5 0 16.6 25.2 36.4 95.2 84.6 289.5
27 07:10 8.8 81 7.05 5.7 9 9 1027.4 0 16.5 25.3 36.5 95.5 84.7 289.7
27 07:00 8.1 82 6.83 5.2 7 7 1027.4 0 16.0 25.2 36.0 93.9 82.5 281.9
27 06:50 7.7 81 6.57 4.7 6 7 1027.2 0 15.5 24.8 35.1 91.5 79.4 271.0
27 06:40 7.2 85 6.68 4.9 7 7 1027.1 0 15.8 25.2 35.7 93.3 81.4 277.9
27 06:30 6.6 88 6.65 4.7 7 7 1026.9 0 15.7 25.3 35.9 93.7 81.6 278.6
27 06:20 6.4 86 6.41 4.3 6 7 1026.7 0 15.2 24.9 35.0 91.3 78.5 267.8
27 06:10 6 89 6.46 4.4 6 7 1026.5 0 15.3 25.1 35.3 92.3 79.6 271.5
27 06:00 5.7 91 6.48 4.3 6 6 1026.4 0 15.4 25.2 35.6 92.8 80.2 273.5
27 05:50 5.5 91 6.4 4.1 6 6 1026.2 0 15.2 25.1 35.3 92.2 79.3 270.3
27 05:40 5.4 91 6.35 4 7 7 1026.1 0 15.1 25.1 35.1 91.7 78.7 268.2
27 05:30 5.4 92 6.42 4.2 9 9 1025.9 0 15.3 25.2 35.4 92.5 79.7 271.5
27 05:10 5 92 6.26 3.8 9 9 1025.6 0 14.9 25.0 34.9 91.1 77.8 265.1
27 04:40 4.6 92 6.09 3.4 7 9 1025.2 0 14.6 24.8 34.4 89.7 75.9 258.2
27 04:30 4.6 92 6.09 3.4 9 9 1025.1 0 14.6 24.8 34.4 89.7 75.9 258.2
27 04:20 5 90 6.12 3.5 1025.1 0 14.6 24.8 34.3 89.5 75.9 258.3
27 04:10 5.9 88 6.35 4 9 9 1025.1 0 15.1 24.9 34.9 91.0 78.1 266.3
27 04:00 6.2 86 6.33 4.1 9 9 1025 0 15.0 24.8 34.7 90.5 77.6 264.3
27 03:50 6.3 86 6.37 4.2 7 7 1025 0 15.1 24.8 34.8 90.8 78.0 265.8
27 03:40 6.4 86 6.41 4.3 1024.9 0 15.2 24.9 34.9 91.1 78.4 267.4
27 03:30 6.4 86 6.41 4.3 9 9 1024.9 0 15.2 24.9 34.9 91.1 78.4 267.4
27 03:20 6.4 88 6.56 4.5 9 11 1024.8 0 15.5 25.1 35.5 92.7 80.5 274.5
27 03:10 5.9 89 6.42 4.3 9 11 1024.7 0 15.3 25.0 35.1 91.8 79.1 269.5
27 03:00 5.7 91 6.48 4.3 7 7 1024.6 0 15.4 25.2 35.5 92.7 80.1 273.0
27 02:50 5.8 89 6.38 4.1 7 7 1024.5 0 15.2 25.0 35.0 91.4 78.6 267.9
27 02:40 5.7 89 6.34 4 6 6 1024.5 0 15.1 24.9 34.9 91.1 78.2 266.3
27 02:30 5.6 92 6.51 4.4 7 7 1024.5 0 15.5 25.2 35.6 93.1 80.6 274.8
27 02:20 6.1 91 6.65 4.7 7 7 1024.5 0 15.7 25.3 36.0 94.1 82.0 279.8
27 02:10 6 91 6.61 4.6 7 7 1024.6 0 15.7 25.3 35.9 93.7 81.5 278.2
27 02:00 6.1 88 6.43 4.2 7 7 1024.6 0 15.3 25.0 35.1 91.6 79.0 269.3
27 01:50 6.1 89 6.51 4.5 9 9 1024.7 0 15.4 25.1 35.4 92.5 80.1 273.1
27 01:40 6.2 91 6.7 4.8 7 7 1024.7 0 15.8 25.4 36.2 94.5 82.6 281.9
27 01:30 6.5 89 6.68 4.9 0 7 1024.7 0 15.8 25.3 36.0 93.9 82.0 279.8
27 01:20 6.6 88 6.65 4.7 0 0 1024.8 0 15.7 25.2 35.8 93.5 81.5 278.1
27 01:10 6.6 88 6.65 4.7 0 0 1024.9 0 15.7 25.2 35.8 93.5 81.5 278.1
27 01:00 6.7 88 6.69 4.9 0 0 1024.9 0 15.8 25.2 35.9 93.8 81.9 279.7
27 00:50 7.1 86 6.71 5 0 0 1025 0 15.8 25.2 35.8 93.6 81.8 279.2
27 00:40 7.4 85 6.76 5.1 0 0 1025 0 15.9 25.2 35.9 93.8 82.1 280.5
27 00:30 7.7 84 6.81 5.2 0 0 1025 0 16.0 25.2 36.0 94.0 82.5 281.8
27 00:20 8.1 82 6.83 5.2 0 0 1025 0 16.0 25.1 35.9 93.7 82.3 281.3
27 00:10 8.4 79 6.7 5 0 2 1025 0 15.8 24.8 35.2 91.9 80.3 274.2
27 00:00 8.2 82 6.87 5.3 7 7 1025 0 16.1 25.1 36.0 94.0 82.8 282.8
26 23:50 8.3 80 6.75 5.1 7 9 1025.1 0 15.9 24.9 35.4 92.6 81.1 276.9
26 23:40 8.6 79 6.79 5.2 9 9 1025 0 15.9 24.9 35.5 92.7 81.3 277.7
26 23:30 9 74 6.53 4.7 9 11 1025.1 0 15.4 24.3 34.3 89.4 77.4 264.2
26 23:20 8.9 77 6.75 5.1 9 9 1025.1 0 15.8 24.7 35.2 91.9 80.4 274.8
26 23:10 9.3 73 6.56 4.8 9 9 1025 0 15.4 24.3 34.2 89.4 77.5 264.6
26 23:00 9.5 73 6.65 5 9 9 1025 0 15.6 24.4 34.5 90.1 78.5 268.1
26 22:50 9.7 72 6.64 5 9 11 1024.9 0 15.6 24.3 34.4 89.8 78.2 266.9
26 22:40 9.9 72 6.72 5.2 11 11 1024.9 0 15.7 24.4 34.6 90.4 79.0 269.9
26 22:30 10.5 70 6.79 5.2 11 11 1024.8 0 15.9 24.3 34.6 90.4 79.3 271.0
26 22:20 11 68 6.81 5.3 13 15 1024.9 0 15.9 24.2 34.5 90.1 79.1 270.2
26 22:10 11.3 65 6.63 4.9 11 13 1024.9 0 15.5 23.9 33.7 87.9 76.5 261.1
26 22:00 11.6 61 6.34 4.5 13 15 1024.9 0 14.9 23.4 32.4 84.6 72.5 247.3
26 21:50 11.8 61 6.42 4.5 1024.9 0 15.0 23.4 32.7 85.2 73.3 250.2
26 21:40 11.9 63 6.67 5.1 13 15 1024.8 0 15.5 23.8 33.6 87.6 76.4 260.9
26 21:30 12 63 6.71 5.2 1024.8 0 15.6 23.8 33.7 87.9 76.8 262.4
26 21:20 12.1 63 6.76 5.4 9 11 1024.8 0 15.7 23.9 33.8 88.3 77.3 264.3
26 21:10 12.2 61 6.58 5 11 13 1024.8 0 15.3 23.6 33.1 86.4 74.9 256.0
26 21:00 12.2 62 6.69 5.2 9 11 1024.8 0 15.6 23.7 33.5 87.5 76.3 260.8
26 20:50 12.2 61 6.58 5 11 13 1024.8 0 15.3 23.6 33.1 86.4 74.9 256.0
26 20:40 12.3 59 6.41 4.6 7 9 1024.7 0 15.0 23.3 32.4 84.5 72.7 248.1
26 20:30 12.2 59 6.37 4.4 11 11 1024.6 0 14.9 23.2 32.3 84.2 72.3 246.7
26 20:20 12.2 58 6.26 4.2 7 7 1024.6 0 14.7 23.1 31.9 83.1 70.9 241.9
26 20:10 12.2 58 6.26 4.2 13 17 1024.6 0 14.7 23.1 31.9 83.1 70.9 241.9
26 20:00 12.3 56 6.08 3.8 9 11 1024.5 0 14.3 22.8 31.2 81.2 68.6 233.7

Last Refresh: 27-Sep-2020 13:10:06

Most of the information presented on this site is sourced from the Bureau of Meteorology.  Copyright in all material sourced from the Bureau of Meteorology resides with the Commonwealth of Australia.